Time;durP1;ratioP1;P1;durP2;ratioP2;P2;SDS_P1;SDS_P2;PMS_P1;PMS_P2;Temp;Humidity;BMP_temperature;BMP_pressure;BME280_temperature;BME280_humidity;BME280_pressure;Samples;Min_cycle;Max_cycle;Signal;HPM_P1;HPM_P2
2024/04/06 00:02:14;;;;;;;4.20;1.83;;;16.10;99.90;;;;;;5061333;28;20473;-72
2024/04/06 00:04:41;;;;;;;1.40;1.00;;;16.10;99.90;;;;;;5071237;28;20469;-72
2024/04/06 00:07:08;;;;;;;1.63;0.90;;;16.20;99.90;;;;;;5070135;28;20576;-72
2024/04/06 00:09:34;;;;;;;1.60;1.03;;;16.30;99.90;;;;;;5070790;28;20526;-72
2024/04/06 00:12:02;;;;;;;1.20;0.90;;;16.30;99.90;;;;;;5072206;28;20469;-72
2024/04/06 00:14:28;;;;;;;8.43;1.27;;;16.30;99.90;;;;;;5071218;28;21057;-72
2024/04/06 00:16:55;;;;;;;1.37;0.83;;;16.40;99.90;;;;;;5072158;28;20445;-71
2024/04/06 00:19:21;;;;;;;1.10;0.90;;;16.40;99.90;;;;;;5064742;28;20203;-71
2024/04/06 00:21:47;;;;;;;2.50;1.27;;;16.40;99.90;;;;;;5068802;28;20473;-71
2024/04/06 00:24:13;;;;;;;3.33;1.17;;;16.30;99.90;;;;;;5067521;28;20468;-72
2024/04/06 00:26:40;;;;;;;5.83;1.40;;;16.30;99.90;;;;;;5062426;28;20457;-71
2024/04/06 00:29:07;;;;;;;4.20;1.63;;;16.20;99.90;;;;;;5065074;28;20196;-71
2024/04/06 00:31:34;;;;;;;1.97;1.50;;;16.10;99.90;;;;;;5066411;28;20558;-72
2024/04/06 00:34:01;;;;;;;1.00;0.80;;;16.10;99.90;;;;;;5073535;28;20505;-73
2024/04/06 00:36:28;;;;;;;2.50;1.70;;;16.10;99.90;;;;;;5065492;28;20457;-71
2024/04/06 00:38:54;;;;;;;6.37;1.47;;;16.20;99.90;;;;;;5071943;28;20477;-72
2024/04/06 00:41:21;;;;;;;1.40;1.10;;;16.20;99.90;;;;;;5072000;28;20470;-73
2024/04/06 00:43:48;;;;;;;6.57;1.30;;;16.10;99.90;;;;;;5063596;28;20207;-72
2024/04/06 00:46:16;;;;;;;1.13;0.90;;;16.10;99.90;;;;;;5060805;28;20462;-71
2024/04/06 00:48:43;;;;;;;2.60;1.20;;;16.00;99.90;;;;;;5073568;28;20462;-72
2024/04/06 00:51:08;;;;;;;2.43;1.20;;;16.10;99.90;;;;;;5068667;28;20485;-71
2024/04/06 00:53:35;;;;;;;1.90;1.27;;;16.10;99.90;;;;;;5072670;28;20478;-72
2024/04/06 00:56:02;;;;;;;1.40;1.07;;;15.80;99.90;;;;;;5070302;28;20465;-70
2024/04/06 00:58:29;;;;;;;2.03;1.17;;;15.60;99.90;;;;;;5073839;28;20462;-71
2024/04/06 01:00:55;;;;;;;1.60;1.50;;;15.50;99.90;;;;;;5071301;28;20468;-72
2024/04/06 01:03:23;;;;;;;3.80;1.30;;;15.60;99.90;;;;;;5066473;28;20454;-71
2024/04/06 01:05:50;;;;;;;5.33;1.20;;;15.70;99.90;;;;;;5066494;28;20470;-72
2024/04/06 01:08:16;;;;;;;3.57;1.10;;;15.70;99.90;;;;;;5068616;28;21039;-72
2024/04/06 01:10:42;;;;;;;2.50;1.40;;;15.80;99.90;;;;;;5073219;28;20468;-72
2024/04/06 01:13:09;;;;;;;1.77;1.60;;;15.80;99.90;;;;;;5071613;28;20513;-72
2024/04/06 01:15:35;;;;;;;1.70;1.00;;;15.90;99.90;;;;;;5066002;28;20468;-72
2024/04/06 01:18:04;;;;;;;3.10;1.30;;;15.90;99.90;;;;;;5072266;28;20464;-72
2024/04/06 01:20:32;;;;;;;4.13;1.33;;;16.00;99.90;;;;;;5069554;28;20208;-72
2024/04/06 01:23:00;;;;;;;1.70;1.37;;;16.00;99.90;;;;;;5062326;28;20473;-72
2024/04/06 01:25:27;;;;;;;2.40;2.20;;;16.10;99.90;;;;;;5065824;28;20541;-72
2024/04/06 01:27:54;;;;;;;2.93;1.50;;;16.00;99.90;;;;;;5068891;28;20453;-72
2024/04/06 01:30:20;;;;;;;1.47;1.23;;;15.90;99.90;;;;;;5071747;28;20496;-72
2024/04/06 01:32:49;;;;;;;1.67;1.30;;;15.90;99.90;;;;;;5072529;28;20859;-72
2024/04/06 01:35:15;;;;;;;1.43;1.17;;;15.80;99.90;;;;;;5067877;28;20461;-71
2024/04/06 01:37:42;;;;;;;1.63;1.40;;;15.70;99.90;;;;;;5073389;28;20493;-73
2024/04/06 01:40:08;;;;;;;1.63;1.53;;;15.70;99.90;;;;;;5075741;28;20212;-73
2024/04/06 01:42:36;;;;;;;1.83;1.30;;;15.80;99.90;;;;;;5076492;28;20470;-72
2024/04/06 01:45:03;;;;;;;2.73;1.23;;;15.80;99.90;;;;;;5068099;28;20799;-72
2024/04/06 01:47:32;;;;;;;3.00;1.80;;;15.80;99.90;;;;;;5063425;28;20469;-72
2024/04/06 01:50:01;;;;;;;5.63;1.47;;;15.70;99.90;;;;;;5065920;28;20461;-73
2024/04/06 01:52:27;;;;;;;3.40;1.97;;;15.70;99.90;;;;;;5063456;28;20525;-72
2024/04/06 01:54:53;;;;;;;1.60;1.30;;;15.80;99.90;;;;;;5076326;28;20489;-72
2024/04/06 01:57:20;;;;;;;10.53;2.80;;;15.70;99.90;;;;;;5080498;28;20783;-72
2024/04/06 01:59:47;;;;;;;1.80;1.20;;;15.60;99.90;;;;;;5074718;28;20310;-72
2024/04/06 02:02:14;;;;;;;1.40;1.17;;;15.50;99.90;;;;;;5073627;28;20477;-72
2024/04/06 02:04:40;;;;;;;1.97;1.40;;;15.40;99.90;;;;;;5069011;28;21082;-72
2024/04/06 02:07:08;;;;;;;1.67;1.00;;;15.50;99.90;;;;;;5069742;28;20624;-72
2024/04/06 02:09:33;;;;;;;1.83;1.23;;;15.50;99.90;;;;;;5076815;28;20208;-72
2024/04/06 02:12:00;;;;;;;1.83;1.30;;;15.50;99.90;;;;;;5062537;28;20774;-73
2024/04/06 02:14:26;;;;;;;2.73;1.40;;;15.50;99.90;;;;;;5062771;28;20231;-72
2024/04/06 02:16:54;;;;;;;1.63;1.47;;;15.40;99.90;;;;;;5062258;28;20660;-72
2024/04/06 02:19:23;;;;;;;2.27;1.40;;;15.30;99.90;;;;;;5064428;28;20654;-72
2024/04/06 02:21:49;;;;;;;1.70;1.33;;;15.20;99.90;;;;;;5061943;28;20940;-72
2024/04/06 02:24:17;;;;;;;4.90;1.73;;;15.20;99.90;;;;;;5066030;28;21172;-72
2024/04/06 02:26:43;;;;;;;10.63;1.43;;;15.10;99.90;;;;;;5061705;28;20458;-72
2024/04/06 02:29:10;;;;;;;4.73;1.70;;;15.00;99.90;;;;;;5065397;28;20911;-72
2024/04/06 02:31:36;;;;;;;2.00;1.40;;;14.90;99.90;;;;;;5064913;28;20513;-73
2024/04/06 02:34:04;;;;;;;2.03;1.43;;;14.80;99.90;;;;;;5062848;28;20474;-72
2024/04/06 02:36:51;;;;;;;1.33;1.20;;;14.80;99.90;;;;;;5066174;28;20208;-72
2024/04/06 02:39:18;;;;;;;2.53;1.67;;;14.80;99.90;;;;;;5065090;28;20491;-72
2024/04/06 02:41:44;;;;;;;1.90;1.47;;;14.80;99.90;;;;;;5064818;28;20564;-72
2024/04/06 02:44:11;;;;;;;1.93;1.53;;;14.70;99.90;;;;;;5058702;28;20465;-72
2024/04/06 02:46:36;;;;;;;3.33;1.57;;;14.60;99.90;;;;;;5058354;28;21141;-72
2024/04/06 02:49:04;;;;;;;2.97;2.33;;;14.50;99.90;;;;;;5062872;28;20458;-72
2024/04/06 02:51:30;;;;;;;5.40;1.40;;;14.50;99.90;;;;;;5068639;28;20220;-72
2024/04/06 02:53:57;;;;;;;3.23;2.73;;;14.50;99.90;;;;;;5063298;28;21172;-72
2024/04/06 02:56:23;;;;;;;1.53;1.30;;;14.50;99.90;;;;;;5065415;28;20210;-72
2024/04/06 02:58:50;;;;;;;1.70;1.43;;;14.50;99.90;;;;;;5061311;28;20508;-72
2024/04/06 03:01:16;;;;;;;3.17;2.10;;;14.40;99.90;;;;;;5065098;28;20250;-72
2024/04/06 03:03:43;;;;;;;1.83;1.73;;;14.40;99.90;;;;;;5056839;28;20468;-71
2024/04/06 03:06:11;;;;;;;3.60;2.20;;;14.40;99.90;;;;;;5066131;28;20453;-72
2024/04/06 03:08:37;;;;;;;1.60;1.50;;;14.40;99.90;;;;;;5071540;28;20462;-72
2024/04/06 03:11:03;;;;;;;1.77;1.27;;;14.30;99.90;;;;;;5078904;28;20449;-71
2024/04/06 03:13:30;;;;;;;2.10;1.70;;;14.30;99.90;;;;;;5073007;28;20489;-71
2024/04/06 03:15:56;;;;;;;1.77;1.50;;;14.20;99.90;;;;;;5069215;28;20453;-71
2024/04/06 03:18:23;;;;;;;2.40;2.20;;;14.10;99.90;;;;;;5064563;28;20450;-71
2024/04/06 03:20:49;;;;;;;2.17;1.77;;;14.10;99.90;;;;;;5068070;28;20208;-72
2024/04/06 03:23:17;;;;;;;1.57;1.40;;;14.10;99.90;;;;;;5061977;28;20450;-72
2024/04/06 03:25:43;;;;;;;2.10;1.60;;;14.20;99.90;;;;;;5063304;28;20986;-72
2024/04/06 03:28:10;;;;;;;2.90;1.90;;;14.20;99.90;;;;;;5066583;28;20462;-72
2024/04/06 03:30:35;;;;;;;2.80;1.10;;;14.20;99.90;;;;;;5076902;28;20764;-71
2024/04/06 03:33:02;;;;;;;2.37;2.17;;;14.20;99.90;;;;;;5070249;28;20507;-71
2024/04/06 03:35:28;;;;;;;5.77;1.60;;;14.20;99.90;;;;;;5064944;28;23591;-73
2024/04/06 03:37:55;;;;;;;2.80;1.60;;;14.20;99.90;;;;;;5068402;28;20545;-71
2024/04/06 03:40:23;;;;;;;1.93;1.63;;;14.20;99.90;;;;;;5069294;28;20211;-72
2024/04/06 03:42:55;;;;;;;3.37;1.93;;;14.20;99.90;;;;;;5071546;28;20772;-72
2024/04/06 03:45:22;;;;;;;10.20;1.90;;;14.10;99.90;;;;;;5065382;28;20512;-71
2024/04/06 03:47:48;;;;;;;2.20;1.67;;;14.10;99.90;;;;;;5069741;28;20465;-72
2024/04/06 03:50:15;;;;;;;5.63;2.77;;;14.10;99.90;;;;;;5068726;28;20463;-73
2024/04/06 03:52:41;;;;;;;2.83;2.10;;;14.10;99.90;;;;;;5068335;28;20663;-72
2024/04/06 03:55:08;;;;;;;2.63;2.43;;;14.00;99.90;;;;;;5069286;28;20572;-72
2024/04/06 03:57:35;;;;;;;3.73;1.97;;;14.00;99.90;;;;;;5065224;28;20687;-71
2024/04/06 04:00:02;;;;;;;2.67;1.63;;;13.90;99.90;;;;;;5071699;28;20873;-71
2024/04/06 04:02:28;;;;;;;2.30;2.00;;;13.80;99.90;;;;;;5073269;28;20490;-71
2024/04/06 04:04:54;;;;;;;4.57;1.70;;;13.70;99.90;;;;;;5065761;28;20453;-74
2024/04/06 04:07:20;;;;;;;1.80;1.30;;;13.60;99.90;;;;;;5066401;28;20455;-71
2024/04/06 04:09:47;;;;;;;2.37;2.10;;;13.60;99.90;;;;;;5068398;28;20469;-71
2024/04/06 04:12:13;;;;;;;2.40;1.80;;;13.50;99.90;;;;;;5067561;28;20220;-72
2024/04/06 04:14:41;;;;;;;2.70;1.77;;;13.50;99.90;;;;;;5070787;28;20508;-71
2024/04/06 04:17:07;;;;;;;4.03;1.97;;;13.50;99.90;;;;;;5071643;28;20250;-71
2024/04/06 04:19:33;;;;;;;3.00;2.20;;;13.50;99.90;;;;;;5064411;28;20441;-71
2024/04/06 04:21:59;;;;;;;2.33;1.73;;;13.50;99.90;;;;;;5076720;28;20219;-72
2024/04/06 04:24:26;;;;;;;3.20;1.93;;;13.50;99.90;;;;;;5069072;28;20449;-72
2024/04/06 04:26:52;;;;;;;2.33;1.67;;;13.50;99.90;;;;;;5064998;28;20204;-72
2024/04/06 04:29:19;;;;;;;2.57;1.30;;;13.60;99.90;;;;;;5073599;28;20982;-72
2024/04/06 04:31:46;;;;;;;1.77;1.40;;;13.60;99.90;;;;;;5075988;28;20482;-72
2024/04/06 04:34:12;;;;;;;3.73;1.47;;;13.60;99.90;;;;;;5072629;28;20572;-72
2024/04/06 04:36:38;;;;;;;2.67;1.60;;;13.80;99.90;;;;;;5068981;28;20465;-72
2024/04/06 04:39:05;;;;;;;2.33;1.57;;;13.90;99.90;;;;;;5071073;28;20893;-72
2024/04/06 04:41:31;;;;;;;4.40;2.03;;;13.90;99.90;;;;;;5074071;28;20302;-72
2024/04/06 04:43:58;;;;;;;1.83;1.60;;;13.90;99.90;;;;;;5071114;28;20575;-72
2024/04/06 04:46:24;;;;;;;1.40;1.20;;;14.00;99.90;;;;;;5070324;28;20211;-71
2024/04/06 04:48:57;;;;;;;2.33;1.27;;;14.00;99.90;;;;;;5071719;28;20458;-72
2024/04/06 04:51:23;;;;;;;2.53;1.43;;;14.10;99.90;;;;;;5068325;28;20281;-72
2024/04/06 04:53:50;;;;;;;3.00;1.30;;;14.30;99.90;;;;;;5071110;28;20481;-71
2024/04/06 04:56:16;;;;;;;1.70;1.30;;;14.30;99.90;;;;;;5073567;28;20578;-72
2024/04/06 04:58:43;;;;;;;2.40;1.70;;;14.30;99.90;;;;;;5067867;28;20453;-72
2024/04/06 05:01:10;;;;;;;3.30;1.80;;;14.30;99.90;;;;;;5071632;28;20838;-72
2024/04/06 05:03:37;;;;;;;2.10;1.80;;;14.20;99.90;;;;;;5078238;28;20580;-72
2024/04/06 05:06:05;;;;;;;8.47;2.40;;;14.20;99.90;;;;;;5074731;28;20462;-73
2024/04/06 05:08:32;;;;;;;2.47;2.03;;;14.20;99.90;;;;;;5076416;28;26368;-72
2024/04/06 05:10:58;;;;;;;3.33;2.00;;;14.10;99.90;;;;;;5074449;28;20549;-72
2024/04/06 05:13:25;;;;;;;1.80;1.30;;;14.10;99.90;;;;;;5071813;28;20457;-72
2024/04/06 05:15:52;;;;;;;2.03;1.27;;;14.00;99.90;;;;;;5075576;28;20226;-72
2024/04/06 05:18:19;;;;;;;2.80;1.47;;;14.00;99.90;;;;;;5074032;28;20446;-72
2024/04/06 05:20:49;;;;;;;1.97;1.20;;;14.10;99.90;;;;;;5071425;28;21468;-72
2024/04/06 05:23:18;;;;;;;2.23;1.63;;;14.00;99.90;;;;;;5070250;28;20470;-72
2024/04/06 05:25:45;;;;;;;1.53;1.23;;;13.90;99.90;;;;;;5067060;28;20453;-71
2024/04/06 05:28:11;;;;;;;1.93;1.33;;;13.80;99.90;;;;;;5074380;28;20480;-72
2024/04/06 05:30:37;;;;;;;2.30;1.60;;;13.80;99.90;;;;;;5072351;28;20469;-72
2024/04/06 05:33:05;;;;;;;2.27;2.07;;;13.80;99.90;;;;;;5078531;28;20854;-72
2024/04/06 05:35:31;;;;;;;7.97;1.90;;;13.80;99.90;;;;;;5070562;28;20223;-72
2024/04/06 05:37:58;;;;;;;5.57;2.10;;;13.80;99.90;;;;;;5073498;28;20450;-71
2024/04/06 05:40:25;;;;;;;4.60;2.70;;;13.80;99.90;;;;;;5076232;28;20204;-72
2024/04/06 05:42:51;;;;;;;2.67;2.27;;;13.90;99.90;;;;;;5068973;28;20496;-71
2024/04/06 05:45:18;;;;;;;2.43;1.30;;;14.10;99.90;;;;;;5076997;28;20959;-72
2024/04/06 05:47:45;;;;;;;3.57;1.70;;;14.20;99.90;;;;;;5072953;28;20449;-72
2024/04/06 05:50:11;;;;;;;2.83;1.77;;;14.50;99.90;;;;;;5074603;28;20458;-71
2024/04/06 05:52:37;;;;;;;2.00;1.53;;;14.80;99.90;;;;;;5070339;28;20564;-72
2024/04/06 05:55:06;;;;;;;1.50;1.33;;;14.90;99.90;;;;;;5078716;28;20560;-72
2024/04/06 05:57:35;;;;;;;2.07;1.37;;;15.00;99.90;;;;;;5077451;28;20471;-71
2024/04/06 06:00:01;;;;;;;1.43;1.33;;;15.20;99.90;;;;;;5069330;28;20900;-69
2024/04/06 06:02:27;;;;;;;1.70;1.60;;;15.30;99.90;;;;;;5069726;28;20485;-71
2024/04/06 06:04:53;;;;;;;6.40;1.80;;;15.50;99.90;;;;;;5070031;28;21786;-70
2024/04/06 06:07:21;;;;;;;1.70;1.30;;;15.90;99.90;;;;;;5066375;28;20459;-70
2024/04/06 06:09:47;;;;;;;1.97;1.67;;;16.20;99.90;;;;;;5067996;28;20237;-69
2024/04/06 06:12:14;;;;;;;4.70;1.60;;;16.50;99.90;;;;;;5075842;28;21011;-70
2024/04/06 06:14:41;;;;;;;1.67;1.50;;;16.70;99.90;;;;;;5071660;28;20297;-70
2024/04/06 06:17:07;;;;;;;2.27;1.33;;;16.80;99.90;;;;;;5073702;28;20504;-70
2024/04/06 06:19:33;;;;;;;2.10;1.67;;;16.90;99.90;;;;;;5071018;28;20769;-70
2024/04/06 06:22:00;;;;;;;4.00;2.07;;;16.90;99.90;;;;;;5079334;28;20480;-71
2024/04/06 06:24:26;;;;;;;1.90;1.50;;;17.00;99.90;;;;;;5072211;28;20210;-71
2024/04/06 06:26:53;;;;;;;2.10;1.50;;;17.00;99.90;;;;;;5072368;28;20449;-71
2024/04/06 06:29:18;;;;;;;1.67;1.50;;;16.80;99.90;;;;;;5073923;28;20216;-70
2024/04/06 06:31:46;;;;;;;2.90;1.60;;;16.70;99.90;;;;;;5072445;28;20465;-70
2024/04/06 06:34:12;;;;;;;3.93;3.53;;;16.50;99.90;;;;;;5065083;28;20916;-69
2024/04/06 06:36:40;;;;;;;1.70;1.50;;;16.40;99.90;;;;;;5071550;28;20974;-69
2024/04/06 06:39:06;;;;;;;2.23;1.90;;;16.20;99.90;;;;;;5073825;28;20630;-70
2024/04/06 06:41:33;;;;;;;3.60;1.90;;;16.30;99.90;;;;;;5076338;28;20499;-69
2024/04/06 06:43:59;;;;;;;2.80;1.73;;;16.30;99.90;;;;;;5068035;28;20458;-70
2024/04/06 06:46:26;;;;;;;2.10;1.70;;;16.60;99.90;;;;;;5070738;28;20473;-70
2024/04/06 06:48:53;;;;;;;3.13;1.63;;;16.90;99.90;;;;;;5065751;28;20203;-71
2024/04/06 06:51:20;;;;;;;1.40;1.17;;;17.50;99.90;;;;;;5075277;28;20480;-72
2024/04/06 06:53:46;;;;;;;2.93;1.50;;;18.20;99.90;;;;;;5068834;28;20460;-70
2024/04/06 06:56:12;;;;;;;4.93;1.50;;;18.70;99.90;;;;;;5070672;28;20453;-71
2024/04/06 06:58:38;;;;;;;2.00;1.57;;;19.20;99.90;;;;;;5073392;28;20204;-70
2024/04/06 07:01:05;;;;;;;3.13;1.80;;;19.80;99.90;;;;;;5068669;28;20449;-70
2024/04/06 07:03:31;;;;;;;2.23;1.30;;;20.50;99.90;;;;;;5067781;28;20216;-70
2024/04/06 07:05:59;;;;;;;1.90;1.30;;;21.30;99.90;;;;;;5073406;28;20916;-70
2024/04/06 07:08:25;;;;;;;2.57;2.13;;;21.90;99.90;;;;;;5075902;28;20202;-72
2024/04/06 07:10:51;;;;;;;1.87;1.27;;;21.60;99.90;;;;;;5075312;28;20453;-72
2024/04/06 07:13:17;;;;;;;2.30;2.10;;;20.90;99.90;;;;;;5069406;28;20576;-72
2024/04/06 07:15:44;;;;;;;3.83;1.37;;;20.40;99.90;;;;;;5066192;28;20478;-71
2024/04/06 07:18:10;;;;;;;3.33;1.80;;;20.30;99.90;;;;;;5066269;28;20234;-70
2024/04/06 07:20:36;;;;;;;4.03;1.40;;;20.10;99.90;;;;;;5068315;28;20924;-70
2024/04/06 07:23:04;;;;;;;1.93;1.47;;;19.70;99.90;;;;;;5066760;28;20211;-70
2024/04/06 07:25:36;;;;;;;2.80;1.67;;;19.80;99.90;;;;;;5063409;28;20811;-70
2024/04/06 07:28:03;;;;;;;8.43;1.90;;;20.40;99.90;;;;;;5062647;28;20562;-70
2024/04/06 07:30:32;;;;;;;4.87;2.10;;;20.80;99.90;;;;;;5059695;28;20454;-69
2024/04/06 07:32:58;;;;;;;2.20;1.30;;;20.80;99.90;;;;;;5068809;28;22720;-70
2024/04/06 07:35:25;;;;;;;1.80;1.47;;;21.00;99.90;;;;;;5063758;28;20515;-69
2024/04/06 07:37:51;;;;;;;4.53;2.13;;;21.00;99.90;;;;;;5069795;28;20204;-70
2024/04/06 07:40:19;;;;;;;2.33;1.33;;;20.80;99.90;;;;;;5070531;28;20461;-70
2024/04/06 07:42:45;;;;;;;3.00;1.77;;;20.70;99.90;;;;;;5060331;28;20958;-69
2024/04/06 07:45:14;;;;;;;1.40;1.20;;;20.80;99.90;;;;;;5068131;28;20460;-70
2024/04/06 07:47:49;;;;;;;2.37;1.93;;;21.00;99.90;;;;;;5070357;28;20206;-70
2024/04/06 07:50:16;;;;;;;1.97;1.77;;;21.40;99.90;;;;;;5068975;28;20883;-70
2024/04/06 07:52:42;;;;;;;2.03;1.50;;;21.70;99.90;;;;;;5064819;28;20481;-70
2024/04/06 07:55:08;;;;;;;2.67;1.70;;;21.70;99.90;;;;;;5070957;28;20483;-70
2024/04/06 07:57:36;;;;;;;5.30;2.20;;;22.00;99.90;;;;;;5068281;28;20255;-70
2024/04/06 08:00:07;;;;;;;2.57;1.50;;;22.30;99.90;;;;;;5071103;28;20468;-70
2024/04/06 08:02:33;;;;;;;1.60;1.40;;;22.60;99.90;;;;;;5066749;28;20832;-70
2024/04/06 08:05:00;;;;;;;2.13;1.67;;;22.60;99.90;;;;;;5068360;28;20564;-70
2024/04/06 08:07:26;;;;;;;4.07;1.30;;;23.20;99.90;;;;;;5068357;28;20362;-70
2024/04/06 08:09:58;;;;;;;4.63;1.43;;;23.20;99.90;;;;;;5061421;28;20544;-70
2024/04/06 08:12:24;;;;;;;3.10;1.27;;;23.40;99.90;;;;;;5073749;28;20920;-70
2024/04/06 08:14:53;;;;;;;2.90;1.60;;;24.10;99.90;;;;;;5066296;28;20485;-70
2024/04/06 08:17:19;;;;;;;1.80;1.40;;;24.90;99.90;;;;;;5067215;28;20777;-71
2024/04/06 08:19:46;;;;;;;2.43;2.17;;;25.40;99.90;;;;;;5072088;28;20450;-70
2024/04/06 08:22:12;;;;;;;2.50;1.30;;;25.50;99.90;;;;;;5075431;28;20531;-70
2024/04/06 08:24:39;;;;;;;7.80;1.80;;;25.30;99.90;;;;;;5074203;28;20931;-70
2024/04/06 08:27:05;;;;;;;2.80;1.30;;;25.30;99.90;;;;;;5072009;28;20927;-70
2024/04/06 08:29:32;;;;;;;4.00;1.57;;;24.60;99.90;;;;;;5072421;28;20458;-70
2024/04/06 08:31:59;;;;;;;2.60;1.40;;;25.20;99.90;;;;;;5073946;28;20311;-70
2024/04/06 08:34:26;;;;;;;3.20;1.40;;;26.00;99.90;;;;;;5071980;28;20541;-70
2024/04/06 08:36:52;;;;;;;4.73;1.33;;;27.00;99.90;;;;;;5068088;28;20462;-70
2024/04/06 08:39:19;;;;;;;1.80;1.30;;;27.40;99.90;;;;;;5079777;28;20481;-70
2024/04/06 08:41:44;;;;;;;1.83;1.50;;;26.70;99.90;;;;;;5081474;28;20219;-70
2024/04/06 08:44:13;;;;;;;4.90;1.40;;;26.90;99.90;;;;;;5075444;28;20483;-70
2024/04/06 08:46:40;;;;;;;8.97;1.97;;;27.10;99.90;;;;;;5072095;28;20204;-71
2024/04/06 08:49:10;;;;;;;3.50;2.00;;;27.80;99.90;;;;;;5066121;28;20606;-71
2024/04/06 08:51:37;;;;;;;4.83;1.70;;;28.70;99.90;;;;;;5073466;28;20492;-70
2024/04/06 08:54:05;;;;;;;3.27;1.47;;;28.70;99.90;;;;;;5079101;28;20556;-70
2024/04/06 08:56:30;;;;;;;1.40;1.10;;;29.00;99.90;;;;;;5068951;28;21187;-70
2024/04/06 08:58:57;;;;;;;2.60;1.60;;;28.40;99.90;;;;;;5078985;28;20445;-70
2024/04/06 09:01:23;;;;;;;2.40;1.20;;;27.90;99.90;;;;;;5077697;28;20310;-70
2024/04/06 09:03:50;;;;;;;2.47;1.30;;;27.80;99.90;;;;;;5070415;28;20461;-70
2024/04/06 09:06:18;;;;;;;4.20;1.70;;;27.50;99.90;;;;;;5080770;28;20192;-70
2024/04/06 09:08:45;;;;;;;1.60;1.10;;;28.20;99.90;;;;;;5068388;28;21066;-71
2024/04/06 09:11:12;;;;;;;2.60;1.23;;;28.70;99.70;;;;;;5078098;28;20567;-70
2024/04/06 09:13:39;;;;;;;3.77;1.80;;;28.60;99.10;;;;;;5070758;28;20937;-71
2024/04/06 09:16:07;;;;;;;1.30;1.20;;;29.00;99.60;;;;;;5070945;28;20541;-70
2024/04/06 09:18:33;;;;;;;1.97;1.20;;;29.40;97.60;;;;;;5075252;28;21055;-71
2024/04/06 09:20:59;;;;;;;2.33;1.23;;;28.80;98.00;;;;;;5068183;28;20462;-70
2024/04/06 09:23:27;;;;;;;2.63;1.70;;;29.60;97.70;;;;;;5075399;28;20590;-70
2024/04/06 09:25:58;;;;;;;2.50;2.00;;;30.40;95.90;;;;;;5074039;28;20212;-70
2024/04/06 09:28:25;;;;;;;2.17;1.53;;;30.90;95.20;;;;;;5078430;28;20927;-71
2024/04/06 09:30:55;;;;;;;3.53;1.43;;;31.40;94.90;;;;;;5076280;28;20458;-71
2024/04/06 09:33:24;;;;;;;3.37;1.40;;;31.30;91.90;;;;;;5072786;28;20488;-71
2024/04/06 09:35:50;;;;;;;2.03;1.70;;;30.20;93.10;;;;;;5075976;28;20485;-70
2024/04/06 09:38:18;;;;;;;3.10;1.33;;;30.80;91.40;;;;;;5081025;28;20450;-71
2024/04/06 09:40:46;;;;;;;1.90;1.30;;;30.80;91.10;;;;;;5068570;28;20841;-70
2024/04/06 09:43:13;;;;;;;2.10;1.50;;;30.40;91.60;;;;;;5077570;28;20473;-70
2024/04/06 09:45:40;;;;;;;1.90;1.43;;;30.20;90.30;;;;;;5066707;28;20462;-70
2024/04/06 09:48:09;;;;;;;1.97;1.00;;;29.60;90.20;;;;;;5067740;28;20486;-70
2024/04/06 09:50:36;;;;;;;3.20;1.43;;;29.40;90.80;;;;;;5068452;28;20464;-70
2024/04/06 09:53:03;;;;;;;2.70;1.30;;;29.90;92.00;;;;;;5073812;28;20501;-70
2024/04/06 09:55:59;;;;;;;1.50;1.20;;;30.40;91.10;;;;;;5073263;28;20968;-70
2024/04/06 09:58:28;;;;;;;2.27;1.40;;;30.70;90.20;;;;;;5074481;28;20537;-70
2024/04/06 10:00:54;;;;;;;2.23;1.40;;;31.70;86.80;;;;;;5074824;28;20466;-70
2024/04/06 10:03:22;;;;;;;1.90;1.50;;;32.40;83.10;;;;;;5072610;28;21249;-70
2024/04/06 10:05:49;;;;;;;3.10;1.60;;;31.90;82.60;;;;;;5074179;28;20456;-71
2024/04/06 10:08:17;;;;;;;1.60;1.10;;;31.80;81.00;;;;;;5080854;28;20446;-71
2024/04/06 10:10:45;;;;;;;3.00;1.57;;;32.00;79.70;;;;;;5075570;28;20868;-71
2024/04/06 10:13:19;;;;;;;2.23;1.10;;;32.50;80.60;;;;;;5070216;28;20481;-71
2024/04/06 10:15:45;;;;;;;2.13;1.43;;;33.30;78.60;;;;;;5072819;28;21050;-71
2024/04/06 10:18:12;;;;;;;2.90;1.80;;;33.80;76.40;;;;;;5074329;28;20453;-70
2024/04/06 10:20:40;;;;;;;1.87;1.10;;;33.40;73.20;;;;;;5072338;28;20526;-71
2024/04/06 10:23:07;;;;;;;2.90;1.40;;;33.10;74.70;;;;;;5064086;28;20480;-71
2024/04/06 10:25:34;;;;;;;5.60;1.70;;;33.10;73.90;;;;;;5079457;28;20456;-70
2024/04/06 10:28:02;;;;;;;4.03;1.43;;;32.70;71.10;;;;;;5074713;28;20573;-71
2024/04/06 10:30:31;;;;;;;1.60;1.33;;;32.60;73.40;;;;;;5080944;28;20454;-71
2024/04/06 10:32:58;;;;;;;1.97;1.40;;;33.10;73.80;;;;;;5075334;28;20503;-70
2024/04/06 10:35:25;;;;;;;2.20;2.00;;;33.90;72.40;;;;;;5074839;28;20481;-72
2024/04/06 10:37:52;;;;;;;1.50;1.20;;;33.80;73.20;;;;;;5074843;28;20968;-70
2024/04/06 10:40:22;;;;;;;2.10;1.27;;;33.30;70.30;;;;;;5072544;28;20464;-72
2024/04/06 10:42:50;;;;;;;1.50;1.40;;;33.00;71.00;;;;;;5070402;28;20484;-71
2024/04/06 10:45:16;;;;;;;2.90;1.60;;;32.00;72.20;;;;;;5070648;28;20472;-74
2024/04/06 10:47:44;;;;;;;3.07;1.60;;;31.10;72.70;;;;;;5075181;28;20471;-71
2024/04/06 10:50:11;;;;;;;4.40;1.50;;;30.60;73.70;;;;;;5073445;28;20541;-72
2024/04/06 10:52:39;;;;;;;1.70;1.40;;;30.50;72.90;;;;;;5070722;28;20567;-71
2024/04/06 10:55:09;;;;;;;3.57;1.67;;;29.90;69.50;;;;;;5069804;28;20485;-71
2024/04/06 10:57:38;;;;;;;1.60;1.00;;;29.40;72.00;;;;;;5068703;28;21229;-69
2024/04/06 11:00:08;;;;;;;5.53;1.60;;;28.80;70.90;;;;;;5068942;28;20586;-71
2024/04/06 11:02:37;;;;;;;8.47;1.57;;;28.40;73.50;;;;;;5074620;28;20559;-70
2024/04/06 11:05:06;;;;;;;1.50;1.27;;;28.20;74.00;;;;;;5069137;28;20978;-71
2024/04/06 11:07:32;;;;;;;1.93;1.30;;;28.10;74.30;;;;;;5073512;28;20834;-71
2024/04/06 11:09:59;;;;;;;2.13;1.50;;;28.20;74.40;;;;;;5075750;28;20585;-71
2024/04/06 11:12:29;;;;;;;2.03;1.40;;;28.50;77.60;;;;;;5073882;28;20510;-72
2024/04/06 11:14:58;;;;;;;3.83;1.40;;;29.10;74.20;;;;;;5077166;28;20457;-69
2024/04/06 11:17:25;;;;;;;2.53;1.20;;;29.70;72.10;;;;;;5073829;28;20458;-70
2024/04/06 11:19:54;;;;;;;1.50;1.20;;;30.10;72.10;;;;;;5077369;28;20458;-70
2024/04/06 11:22:24;;;;;;;1.93;1.17;;;30.80;71.80;;;;;;5071204;28;20477;-71
2024/04/06 11:24:50;;;;;;;1.50;1.27;;;31.00;69.10;;;;;;5068823;28;20549;-72
2024/04/06 11:27:20;;;;;;;1.80;1.20;;;30.70;66.30;;;;;;5065897;28;20455;-72
2024/04/06 11:29:48;;;;;;;1.40;1.03;;;30.70;68.50;;;;;;5076248;28;20477;-72
2024/04/06 11:32:19;;;;;;;1.73;1.10;;;30.50;67.10;;;;;;5072381;28;20478;-72
2024/04/06 11:34:45;;;;;;;2.23;1.53;;;31.70;66.10;;;;;;5067125;28;20469;-72
2024/04/06 11:37:12;;;;;;;1.90;1.10;;;32.20;66.00;;;;;;5078587;28;20552;-72
2024/04/06 11:39:40;;;;;;;1.53;1.33;;;32.60;63.80;;;;;;5074881;28;20771;-71
2024/04/06 11:42:07;;;;;;;2.20;1.30;;;32.10;63.10;;;;;;5064565;28;20477;-72
2024/04/06 11:44:33;;;;;;;1.97;1.17;;;31.70;62.00;;;;;;5075199;28;20845;-72
2024/04/06 11:46:59;;;;;;;1.30;1.10;;;31.80;61.60;;;;;;5072757;28;20452;-71
2024/04/06 11:49:25;;;;;;;1.50;1.00;;;31.30;60.80;;;;;;5075867;28;20224;-72
2024/04/06 11:51:52;;;;;;;1.40;0.90;;;31.90;64.20;;;;;;5081650;28;21118;-72
2024/04/06 11:54:18;;;;;;;2.67;1.03;;;31.40;60.50;;;;;;5079959;28;20200;-72
2024/04/06 11:56:46;;;;;;;2.40;1.23;;;31.30;62.00;;;;;;5071544;28;21228;-72
2024/04/06 11:59:12;;;;;;;3.80;1.37;;;31.20;60.90;;;;;;5070503;28;20583;-72
2024/04/06 12:01:40;;;;;;;1.77;1.20;;;30.70;61.10;;;;;;5068934;28;20474;-71
2024/04/06 12:04:06;;;;;;;2.13;1.40;;;30.60;60.80;;;;;;5075720;28;20556;-71
2024/04/06 12:06:33;;;;;;;2.60;1.10;;;31.50;61.80;;;;;;5076675;28;20453;-71
2024/04/06 12:08:59;;;;;;;1.70;1.10;;;32.60;63.10;;;;;;5077600;28;20231;-71
2024/04/06 12:11:26;;;;;;;1.50;1.07;;;33.70;58.30;;;;;;5069966;28;21015;-70
2024/04/06 12:13:54;;;;;;;2.10;1.40;;;33.20;57.20;;;;;;5075968;28;20223;-70
2024/04/06 12:16:22;;;;;;;1.23;1.13;;;31.90;58.20;;;;;;5075585;28;20485;-71
2024/04/06 12:18:47;;;;;;;8.07;2.17;;;31.60;58.30;;;;;;5079415;28;20456;-70
2024/04/06 12:21:14;;;;;;;1.37;1.23;;;31.50;58.40;;;;;;5076885;28;20469;-71
2024/04/06 12:23:40;;;;;;;1.93;1.33;;;32.00;58.00;;;;;;5078878;28;20672;-71
2024/04/06 12:26:07;;;;;;;2.10;1.23;;;31.60;56.40;;;;;;5067400;28;20449;-70
2024/04/06 12:28:33;;;;;;;3.17;1.27;;;31.20;57.20;;;;;;5069699;28;20203;-70
2024/04/06 12:31:01;;;;;;;1.57;1.00;;;31.60;56.50;;;;;;5070952;28;20453;-70
2024/04/06 12:33:29;;;;;;;1.47;1.10;;;31.90;58.10;;;;;;5067896;28;20554;-70
2024/04/06 12:35:55;;;;;;;4.80;1.20;;;32.50;56.30;;;;;;5075239;28;20975;-70
2024/04/06 12:38:21;;;;;;;3.30;1.33;;;32.40;56.50;;;;;;5069335;28;20472;-70
2024/04/06 12:40:48;;;;;;;2.50;2.30;;;32.30;56.00;;;;;;5069874;28;20458;-70
2024/04/06 12:43:14;;;;;;;2.47;0.90;;;31.90;55.80;;;;;;5070900;28;20470;-70
2024/04/06 12:45:41;;;;;;;2.57;1.00;;;31.80;55.80;;;;;;5072210;28;20456;-70